Time,TemperatureF,DewpointF,PressureIn,WindDirection,WindDirectionDegrees,WindSpeedMPH,WindSpeedGustMPH,Humidity,HourlyPrecipIn,Conditions,Clouds,dailyrainin,SoftwareType,DateUTC
2013-01-26 00:00:00,20.5,14.0,29.79,SE,135,0.0,0.0,76,0.00,,,0.00,WUHU216HW,2013-01-26 05:00:00,
2013-01-26 00:01:00,20.7,14.2,29.80,SE,135,0.0,0.0,76,0.00,,,0.00,WUHU216HW,2013-01-26 05:01:00,
2013-01-26 00:02:00,20.7,14.2,29.80,SE,135,0.0,0.0,76,0.00,,,0.00,WUHU216HW,2013-01-26 05:02:00,
2013-01-26 00:07:00,20.7,14.2,29.80,SE,135,0.0,0.0,76,0.00,,,0.00,WUHU216HW,2013-01-26 05:07:00,
2013-01-26 00:12:00,20.7,14.2,29.80,SE,135,0.0,0.0,76,0.00,,,0.00,WUHU216HW,2013-01-26 05:12:00,
2013-01-26 00:17:00,20.7,14.2,29.80,SE,135,0.0,0.0,76,0.00,,,0.00,WUHU216HW,2013-01-26 05:17:00,
2013-01-26 00:22:00,20.7,14.2,29.80,SE,135,0.0,0.0,76,0.00,,,0.00,WUHU216HW,2013-01-26 05:22:00,
2013-01-26 00:27:00,20.7,14.2,29.80,SE,135,0.0,0.0,76,0.00,,,0.00,WUHU216HW,2013-01-26 05:27:00,
2013-01-26 00:32:00,20.7,14.2,29.80,SE,135,0.0,0.0,76,0.00,,,0.00,WUHU216HW,2013-01-26 05:32:00,
2013-01-26 00:37:00,20.7,14.2,29.79,SE,135,0.0,0.0,76,0.00,,,0.00,WUHU216HW,2013-01-26 05:37:00,
2013-01-26 00:42:00,20.5,14.0,29.80,SE,135,0.0,0.0,76,0.00,,,0.00,WUHU216HW,2013-01-26 05:42:00,
2013-01-26 00:47:00,20.7,14.2,29.79,SE,135,0.0,0.0,76,0.00,,,0.00,WUHU216HW,2013-01-26 05:47:00,
2013-01-26 00:52:00,20.7,14.2,29.80,SE,135,0.0,0.0,76,0.00,,,0.00,WUHU216HW,2013-01-26 05:52:00,
2013-01-26 00:57:00,20.7,14.2,29.79,SE,135,0.0,0.0,76,0.00,,,0.00,WUHU216HW,2013-01-26 05:57:00,
2013-01-26 01:02:00,20.7,14.2,29.80,SE,135,0.0,0.0,76,0.00,,,0.00,WUHU216HW,2013-01-26 06:02:00,
2013-01-26 01:07:00,20.7,14.2,29.80,SE,135,0.0,0.0,76,0.00,,,0.00,WUHU216HW,2013-01-26 06:07:00,
2013-01-26 01:12:00,20.5,14.0,29.79,SE,135,0.0,0.0,76,0.00,,,0.00,WUHU216HW,2013-01-26 06:12:00,
2013-01-26 01:17:00,20.5,14.0,29.80,SE,135,0.0,0.0,76,0.00,,,0.00,WUHU216HW,2013-01-26 06:17:00,
2013-01-26 01:22:00,20.5,14.0,29.79,SE,135,0.0,0.0,76,0.00,,,0.00,WUHU216HW,2013-01-26 06:22:00,
2013-01-26 01:27:00,20.3,13.9,29.79,SE,135,0.0,0.0,76,0.00,,,0.00,WUHU216HW,2013-01-26 06:27:00,
2013-01-26 01:32:00,20.0,13.2,29.79,SE,135,0.0,0.0,75,0.00,,,0.00,WUHU216HW,2013-01-26 06:32:00,
2013-01-26 01:37:00,19.8,13.1,29.79,SE,135,0.0,0.0,75,0.00,,,0.00,WUHU216HW,2013-01-26 06:37:00,
2013-01-26 01:41:00,19.4,12.7,29.79,SE,135,0.0,0.0,75,0.00,,,0.00,WUHU216HW,2013-01-26 06:41:00,
2013-01-26 01:46:00,18.9,12.2,29.80,SE,135,0.0,0.0,75,0.00,,,0.00,WUHU216HW,2013-01-26 06:46:00,
2013-01-26 01:51:00,18.4,11.3,29.80,SE,135,0.0,0.0,74,0.00,,,0.00,WUHU216HW,2013-01-26 06:51:00,
2013-01-26 01:56:00,18.0,11.1,29.80,SE,135,0.0,0.0,74,0.00,,,0.00,WUHU216HW,2013-01-26 06:56:00,
2013-01-26 02:01:00,17.6,10.7,29.80,SE,135,0.0,0.0,74,0.00,,,0.00,WUHU216HW,2013-01-26 07:01:00,
2013-01-26 02:06:00,17.3,10.4,29.81,SE,135,0.0,0.0,74,0.00,,,0.00,WUHU216HW,2013-01-26 07:06:00,
2013-01-26 02:11:00,16.9,10.0,29.81,SE,135,0.0,0.0,74,0.00,,,0.00,WUHU216HW,2013-01-26 07:11:00,
2013-01-26 02:17:00,16.6,9.6,29.81,SE,135,0.0,0.0,74,0.00,,,0.00,WUHU216HW,2013-01-26 07:17:00,
2013-01-26 02:22:00,16.2,9.6,29.81,SE,135,0.0,0.0,75,0.00,,,0.00,WUHU216HW,2013-01-26 07:22:00,
2013-01-26 02:26:00,16.2,9.6,29.81,SE,135,0.0,0.0,75,0.00,,,0.00,WUHU216HW,2013-01-26 07:26:00,
2013-01-26 02:31:00,16.2,9.6,29.81,SE,135,0.0,0.0,75,0.00,,,0.00,WUHU216HW,2013-01-26 07:31:00,
2013-01-26 02:36:00,16.2,9.9,29.81,SE,135,0.0,0.0,76,0.00,,,0.00,WUHU216HW,2013-01-26 07:36:00,
2013-01-26 02:41:00,16.2,9.9,29.82,SE,135,0.0,0.0,76,0.00,,,0.00,WUHU216HW,2013-01-26 07:41:00,
2013-01-26 02:46:00,16.2,9.9,29.82,SE,135,0.0,0.0,76,0.00,,,0.00,WUHU216HW,2013-01-26 07:46:00,
2013-01-26 02:51:00,16.2,9.9,29.83,SE,135,0.0,0.0,76,0.00,,,0.00,WUHU216HW,2013-01-26 07:51:00,
2013-01-26 02:56:00,16.4,10.1,29.83,SE,135,0.0,0.0,76,0.00,,,0.00,WUHU216HW,2013-01-26 07:56:00,
2013-01-26 03:01:00,16.6,10.3,29.83,SE,135,0.0,0.0,76,0.00,,,0.00,WUHU216HW,2013-01-26 08:01:00,
2013-01-26 03:06:00,16.7,10.7,29.83,SE,135,0.0,0.0,77,0.00,,,0.00,WUHU216HW,2013-01-26 08:06:00,
2013-01-26 03:11:00,16.9,10.9,29.83,SE,135,0.0,0.0,77,0.00,,,0.00,WUHU216HW,2013-01-26 08:11:00,
2013-01-26 03:16:00,16.9,10.9,29.82,SE,135,0.0,0.0,77,0.00,,,0.00,WUHU216HW,2013-01-26 08:16:00,
2013-01-26 03:21:00,16.9,10.9,29.82,SE,135,0.0,0.0,77,0.00,,,0.00,WUHU216HW,2013-01-26 08:21:00,
2013-01-26 03:26:00,16.9,10.9,29.83,SE,135,0.0,0.0,77,0.00,,,0.00,WUHU216HW,2013-01-26 08:26:00,
2013-01-26 03:31:00,17.1,11.1,29.83,SE,135,0.0,0.0,77,0.00,,,0.00,WUHU216HW,2013-01-26 08:31:00,
2013-01-26 03:36:00,17.1,11.3,29.83,SE,135,0.0,0.0,78,0.00,,,0.00,WUHU216HW,2013-01-26 08:36:00,
2013-01-26 03:41:00,17.3,11.5,29.84,SE,135,0.0,0.0,78,0.00,,,0.00,WUHU216HW,2013-01-26 08:41:00,
2013-01-26 03:46:00,17.3,11.5,29.84,SE,135,0.0,0.0,78,0.00,,,0.00,WUHU216HW,2013-01-26 08:46:00,
2013-01-26 03:51:00,17.5,11.7,29.84,SE,135,0.0,0.0,78,0.00,,,0.00,WUHU216HW,2013-01-26 08:51:00,
2013-01-26 03:56:00,17.6,11.9,29.84,SE,135,0.0,0.0,78,0.00,,,0.00,WUHU216HW,2013-01-26 08:56:00,
2013-01-26 04:01:00,17.6,11.9,29.84,SE,135,0.0,0.0,78,0.00,,,0.00,WUHU216HW,2013-01-26 09:01:00,
2013-01-26 04:06:00,17.6,11.9,29.84,SE,135,0.0,0.0,78,0.00,,,0.00,WUHU216HW,2013-01-26 09:06:00,
2013-01-26 04:11:00,17.8,12.1,29.84,SE,135,0.0,0.0,78,0.00,,,0.00,WUHU216HW,2013-01-26 09:11:00,
2013-01-26 04:16:00,17.8,12.1,29.84,SE,135,0.0,0.0,78,0.00,,,0.00,WUHU216HW,2013-01-26 09:16:00,
2013-01-26 04:21:00,17.8,12.1,29.85,SE,135,0.0,0.0,78,0.00,,,0.00,WUHU216HW,2013-01-26 09:21:00,
2013-01-26 04:26:00,18.0,12.3,29.85,SE,135,0.0,0.0,78,0.00,,,0.00,WUHU216HW,2013-01-26 09:26:00,
2013-01-26 04:31:00,18.0,12.3,29.85,SE,135,0.0,0.0,78,0.00,,,0.00,WUHU216HW,2013-01-26 09:31:00,
2013-01-26 04:36:00,18.2,12.3,29.85,SE,135,0.0,0.0,78,0.00,,,0.00,WUHU216HW,2013-01-26 09:36:00,
2013-01-26 04:41:00,18.2,12.3,29.85,SE,135,0.0,0.0,78,0.00,,,0.00,WUHU216HW,2013-01-26 09:41:00,
2013-01-26 04:46:00,18.4,12.5,29.85,SE,135,0.0,0.0,78,0.00,,,0.00,WUHU216HW,2013-01-26 09:46:00,
2013-01-26 04:51:00,18.4,12.9,29.85,SE,135,0.0,0.0,79,0.00,,,0.00,WUHU216HW,2013-01-26 09:51:00,
2013-01-26 04:56:00,18.4,12.5,29.86,SE,135,0.0,0.0,78,0.00,,,0.00,WUHU216HW,2013-01-26 09:56:00,
2013-01-26 05:01:00,18.4,12.5,29.85,SE,135,0.0,0.0,78,0.00,,,0.00,WUHU216HW,2013-01-26 10:01:00,
2013-01-26 05:06:00,18.4,12.5,29.85,SE,135,0.0,0.0,78,0.00,,,0.00,WUHU216HW,2013-01-26 10:06:00,
2013-01-26 05:11:00,18.4,12.5,29.86,SE,135,0.0,0.0,78,0.00,,,0.00,WUHU216HW,2013-01-26 10:11:00,
2013-01-26 05:16:00,18.5,13.1,29.86,SE,135,0.0,0.0,79,0.00,,,0.00,WUHU216HW,2013-01-26 10:16:00,
2013-01-26 05:21:00,18.5,12.7,29.86,SE,135,0.0,0.0,78,0.00,,,0.00,WUHU216HW,2013-01-26 10:21:00,
2013-01-26 05:26:00,18.7,12.9,29.87,SE,135,0.0,0.0,78,0.00,,,0.00,WUHU216HW,2013-01-26 10:26:00,
2013-01-26 05:31:00,18.9,13.4,29.87,SE,135,0.0,0.0,79,0.00,,,0.00,WUHU216HW,2013-01-26 10:31:00,
2013-01-26 05:36:00,18.9,13.1,29.87,SE,135,0.0,0.0,78,0.00,,,0.00,WUHU216HW,2013-01-26 10:36:00,
2013-01-26 05:41:00,19.1,13.2,29.87,SE,135,0.0,0.0,78,0.00,,,0.00,WUHU216HW,2013-01-26 10:41:00,
2013-01-26 05:46:00,19.1,13.2,29.87,SE,135,0.0,0.0,78,0.00,,,0.00,WUHU216HW,2013-01-26 10:46:00,
2013-01-26 05:51:00,19.1,13.2,29.87,SE,135,0.0,0.0,78,0.00,,,0.00,WUHU216HW,2013-01-26 10:51:00,
2013-01-26 05:56:00,19.1,13.6,29.87,SE,135,0.0,0.0,79,0.00,,,0.00,WUHU216HW,2013-01-26 10:56:00,
2013-01-26 06:01:00,19.3,13.8,29.87,SE,135,0.0,0.0,79,0.00,,,0.00,WUHU216HW,2013-01-26 11:01:00,
2013-01-26 06:06:00,19.3,13.8,29.87,SE,135,0.0,0.0,79,0.00,,,0.00,WUHU216HW,2013-01-26 11:06:00,
2013-01-26 06:11:00,19.4,14.0,29.87,SE,135,0.0,0.0,79,0.00,,,0.00,WUHU216HW,2013-01-26 11:11:00,
2013-01-26 06:16:00,19.4,14.0,29.87,SE,135,0.0,0.0,79,0.00,,,0.00,WUHU216HW,2013-01-26 11:16:00,
2013-01-26 06:21:00,19.4,14.0,29.87,SE,135,0.0,0.0,79,0.00,,,0.00,WUHU216HW,2013-01-26 11:21:00,
2013-01-26 06:26:00,19.4,14.0,29.87,SE,135,0.0,0.0,79,0.00,,,0.00,WUHU216HW,2013-01-26 11:26:00,
2013-01-26 06:31:00,19.4,13.6,29.87,SE,135,0.0,0.0,78,0.00,,,0.00,WUHU216HW,2013-01-26 11:31:00,
2013-01-26 06:36:00,19.4,13.6,29.88,SE,135,0.0,0.0,78,0.00,,,0.00,WUHU216HW,2013-01-26 11:36:00,
2013-01-26 06:41:00,19.4,13.6,29.88,SE,135,0.0,0.0,78,0.00,,,0.00,WUHU216HW,2013-01-26 11:41:00,
2013-01-26 06:46:00,19.6,14.1,29.88,SE,135,0.0,0.0,79,0.00,,,0.00,WUHU216HW,2013-01-26 11:46:00,
2013-01-26 06:51:00,19.6,14.1,29.89,SE,135,0.0,0.0,79,0.00,,,0.00,WUHU216HW,2013-01-26 11:51:00,
2013-01-26 06:56:00,19.6,14.1,29.89,SE,135,0.0,0.0,79,0.00,,,0.00,WUHU216HW,2013-01-26 11:56:00,
2013-01-26 07:01:00,19.8,14.3,29.89,SE,135,0.0,0.0,79,0.00,,,0.00,WUHU216HW,2013-01-26 12:01:00,
2013-01-26 07:06:00,19.8,14.3,29.89,SE,135,0.0,0.0,79,0.00,,,0.00,WUHU216HW,2013-01-26 12:06:00,
2013-01-26 07:11:00,19.8,14.3,29.89,SE,135,0.0,0.0,79,0.00,,,0.00,WUHU216HW,2013-01-26 12:11:00,
2013-01-26 07:16:00,19.6,14.1,29.90,SE,135,0.0,0.0,79,0.00,,,0.00,WUHU216HW,2013-01-26 12:16:00,
2013-01-26 07:21:00,19.8,14.3,29.89,SE,135,0.0,0.0,79,0.00,,,0.00,WUHU216HW,2013-01-26 12:21:00,
2013-01-26 07:26:00,19.8,14.3,29.90,SE,135,0.0,0.0,79,0.00,,,0.00,WUHU216HW,2013-01-26 12:26:00,
2013-01-26 07:31:00,19.8,14.3,29.90,SE,135,0.0,0.0,79,0.00,,,0.00,WUHU216HW,2013-01-26 12:31:00,
2013-01-26 07:36:00,19.6,14.1,29.90,SE,135,0.0,0.0,79,0.00,,,0.00,WUHU216HW,2013-01-26 12:36:00,
2013-01-26 07:41:00,19.8,14.3,29.90,SE,135,0.0,0.0,79,0.00,,,0.00,WUHU216HW,2013-01-26 12:41:00,
2013-01-26 07:46:00,19.8,14.3,29.91,SE,135,0.0,0.0,79,0.00,,,0.00,WUHU216HW,2013-01-26 12:46:00,
2013-01-26 07:51:00,19.8,14.3,29.90,SE,135,0.0,0.0,79,0.00,,,0.00,WUHU216HW,2013-01-26 12:51:00,
2013-01-26 07:56:00,19.8,14.3,29.91,SE,135,0.0,0.0,79,0.00,,,0.00,WUHU216HW,2013-01-26 12:56:00,
2013-01-26 08:01:00,19.8,14.3,29.91,SE,135,0.0,0.0,79,0.00,,,0.00,WUHU216HW,2013-01-26 13:01:00,
2013-01-26 08:06:00,19.8,14.3,29.91,SE,135,0.0,0.0,79,0.00,,,0.00,WUHU216HW,2013-01-26 13:06:00,
2013-01-26 08:11:00,20.0,14.5,29.92,SE,135,0.0,0.0,79,0.00,,,0.00,WUHU216HW,2013-01-26 13:11:00,
2013-01-26 08:16:00,20.0,14.8,29.91,SE,135,0.0,0.0,80,0.00,,,0.00,WUHU216HW,2013-01-26 13:16:00,
2013-01-26 08:21:00,20.2,14.7,29.92,SE,135,0.0,0.0,79,0.00,,,0.00,WUHU216HW,2013-01-26 13:21:00,
2013-01-26 08:26:00,20.2,14.7,29.92,SE,135,0.0,0.0,79,0.00,,,0.00,WUHU216HW,2013-01-26 13:26:00,
2013-01-26 08:31:00,20.2,14.7,29.92,SE,135,0.0,0.0,79,0.00,,,0.00,WUHU216HW,2013-01-26 13:31:00,
2013-01-26 08:36:00,20.3,15.1,29.92,SE,135,0.0,0.0,80,0.00,,,0.00,WUHU216HW,2013-01-26 13:36:00,
2013-01-26 08:41:00,20.5,15.6,29.92,SE,135,0.0,1.0,81,0.00,,,0.00,WUHU216HW,2013-01-26 13:41:00,
2013-01-26 08:46:00,20.5,15.3,29.92,SE,135,0.0,1.0,80,0.00,,,0.00,WUHU216HW,2013-01-26 13:46:00,
2013-01-26 08:51:00,20.5,15.3,29.92,SE,135,0.0,0.0,80,0.00,,,0.00,WUHU216HW,2013-01-26 13:51:00,
2013-01-26 08:56:00,20.9,15.7,29.92,SE,135,0.0,0.0,80,0.00,,,0.00,WUHU216HW,2013-01-26 13:56:00,
2013-01-26 09:01:00,21.1,15.8,29.92,SE,135,0.0,0.0,80,0.00,,,0.00,WUHU216HW,2013-01-26 14:01:00,
2013-01-26 09:06:00,21.2,15.8,29.92,SE,135,0.0,0.0,79,0.00,,,0.00,WUHU216HW,2013-01-26 14:06:00,
2013-01-26 09:11:00,21.2,16.0,29.93,SE,135,0.0,0.0,80,0.00,,,0.00,WUHU216HW,2013-01-26 14:11:00,
2013-01-26 09:16:00,21.6,16.4,29.93,SE,135,0.0,0.0,80,0.00,,,0.00,WUHU216HW,2013-01-26 14:16:00,
2013-01-26 09:21:00,21.6,16.4,29.93,SE,135,0.0,1.0,80,0.00,,,0.00,WUHU216HW,2013-01-26 14:21:00,
2013-01-26 09:26:00,22.0,16.7,29.93,SE,135,0.0,1.0,80,0.00,,,0.00,WUHU216HW,2013-01-26 14:26:00,
2013-01-26 09:31:00,22.1,16.9,29.93,SE,135,0.0,0.0,80,0.00,,,0.00,WUHU216HW,2013-01-26 14:31:00,
2013-01-26 09:36:00,22.3,17.1,29.93,SE,135,0.0,0.0,80,0.00,,,0.00,WUHU216HW,2013-01-26 14:36:00,
2013-01-26 09:41:00,22.7,17.5,29.94,SE,135,0.0,0.0,80,0.00,,,0.00,WUHU216HW,2013-01-26 14:41:00,
2013-01-26 09:46:00,22.9,17.6,29.94,SE,135,0.0,0.0,80,0.00,,,0.00,WUHU216HW,2013-01-26 14:46:00,
2013-01-26 09:51:00,23.0,17.6,29.94,SE,135,0.0,0.0,79,0.00,,,0.00,WUHU216HW,2013-01-26 14:51:00,
2013-01-26 09:56:00,23.4,17.9,29.95,SE,135,0.0,1.0,79,0.00,,,0.00,WUHU216HW,2013-01-26 14:56:00,
2013-01-26 10:01:00,23.4,17.9,29.95,SE,135,0.0,1.0,79,0.00,,,0.00,WUHU216HW,2013-01-26 15:01:00,
2013-01-26 10:06:00,23.8,18.3,29.95,SE,135,0.0,0.0,79,0.00,,,0.00,WUHU216HW,2013-01-26 15:06:00,
2013-01-26 10:11:00,23.9,18.7,29.95,SE,135,0.0,0.0,80,0.00,,,0.00,WUHU216HW,2013-01-26 15:11:00,
2013-01-26 10:16:00,24.3,19.1,29.95,SE,135,0.0,0.0,80,0.00,,,0.00,WUHU216HW,2013-01-26 15:16:00,
2013-01-26 10:21:00,24.7,19.4,29.96,SE,135,0.0,1.0,80,0.00,,,0.00,WUHU216HW,2013-01-26 15:21:00,
2013-01-26 10:26:00,24.8,19.3,29.96,ESE,113,0.0,1.0,79,0.00,,,0.00,WUHU216HW,2013-01-26 15:26:00,
2013-01-26 10:31:00,25.0,19.4,29.96,SE,135,0.0,1.0,79,0.00,,,0.00,WUHU216HW,2013-01-26 15:31:00,
2013-01-26 10:36:00,25.4,19.8,29.96,SE,135,0.0,1.0,79,0.00,,,0.00,WUHU216HW,2013-01-26 15:36:00,
2013-01-26 10:41:00,25.6,20.0,29.96,SE,135,0.0,1.0,79,0.00,,,0.00,WUHU216HW,2013-01-26 15:41:00,
2013-01-26 10:46:00,25.7,20.1,29.96,SE,135,0.0,1.0,79,0.00,,,0.00,WUHU216HW,2013-01-26 15:46:00,
2013-01-26 10:51:00,26.1,20.2,29.96,SE,135,0.0,0.0,78,0.00,,,0.00,WUHU216HW,2013-01-26 15:51:00,
2013-01-26 10:56:00,26.3,20.4,29.96,South,180,0.0,1.0,78,0.00,,,0.00,WUHU216HW,2013-01-26 15:56:00,
2013-01-26 11:01:00,26.5,20.4,29.96,SSW,203,0.0,1.0,78,0.00,,,0.00,WUHU216HW,2013-01-26 16:01:00,
2013-01-26 11:06:00,26.6,20.4,29.96,ESE,113,0.0,0.0,77,0.00,,,0.00,WUHU216HW,2013-01-26 16:06:00,
2013-01-26 11:11:00,26.8,20.8,29.96,SE,135,0.0,1.0,78,0.00,,,0.00,WUHU216HW,2013-01-26 16:11:00,
2013-01-26 11:16:00,27.2,20.9,29.96,NE,45,0.0,1.0,77,0.00,,,0.00,WUHU216HW,2013-01-26 16:16:00,
2013-01-26 11:21:00,27.4,21.1,29.96,ESE,113,0.0,1.0,77,0.00,,,0.00,WUHU216HW,2013-01-26 16:21:00,
2013-01-26 11:26:00,27.4,21.1,29.96,ESE,113,0.0,0.0,77,0.00,,,0.00,WUHU216HW,2013-01-26 16:26:00,
2013-01-26 11:31:00,27.4,21.1,29.96,NE,45,1.0,1.0,77,0.01,,,0.01,WUHU216HW,2013-01-26 16:31:00,
2013-01-26 11:36:00,27.5,21.3,29.95,ENE,68,0.0,1.0,77,0.01,,,0.01,WUHU216HW,2013-01-26 16:36:00,
2013-01-26 11:41:00,27.7,21.4,29.95,NE,53,1.0,2.0,77,0.01,,,0.01,WUHU216HW,2013-01-26 16:41:00,
2013-01-26 11:46:00,27.7,21.1,29.95,NNE,23,0.0,2.0,76,0.01,,,0.01,WUHU216HW,2013-01-26 16:46:00,
2013-01-26 11:51:00,27.7,21.1,29.95,NE,45,0.0,1.0,76,0.01,,,0.01,WUHU216HW,2013-01-26 16:51:00,
2013-01-26 11:56:00,27.7,21.1,29.95,ENE,68,0.0,1.0,76,0.01,,,0.01,WUHU216HW,2013-01-26 16:56:00,
2013-01-26 12:01:00,27.9,21.2,29.94,SE,135,0.0,2.0,76,0.01,,,0.01,WUHU216HW,2013-01-26 17:01:00,
2013-01-26 12:06:00,27.9,21.2,29.94,SE,135,0.0,2.0,76,0.01,,,0.01,WUHU216HW,2013-01-26 17:06:00,
2013-01-26 12:11:00,28.3,21.6,29.94,NNE,23,1.0,1.0,76,0.02,,,0.02,WUHU216HW,2013-01-26 17:11:00,
2013-01-26 12:16:00,28.4,21.8,29.94,SE,135,1.0,1.0,76,0.02,,,0.02,WUHU216HW,2013-01-26 17:16:00,
2013-01-26 12:21:00,28.8,22.1,29.93,South,180,0.0,1.0,76,0.02,,,0.02,WUHU216HW,2013-01-26 17:21:00,
2013-01-26 12:26:00,29.2,22.5,29.93,SSW,203,1.0,1.0,76,0.02,,,0.02,WUHU216HW,2013-01-26 17:26:00,
2013-01-26 12:31:00,29.5,22.9,29.93,WNW,293,1.0,1.0,76,0.01,,,0.02,WUHU216HW,2013-01-26 17:31:00,
2013-01-26 12:36:00,29.7,23.1,29.93,West,270,0.0,2.0,76,0.01,,,0.02,WUHU216HW,2013-01-26 17:36:00,
2013-01-26 12:41:00,29.9,23.2,29.93,NW,315,1.0,2.0,76,0.01,,,0.02,WUHU216HW,2013-01-26 17:41:00,
2013-01-26 12:46:00,29.9,23.2,29.93,West,266,1.0,1.0,76,0.02,,,0.03,WUHU216HW,2013-01-26 17:46:00,
2013-01-26 12:51:00,29.9,23.2,29.93,ESE,113,0.0,2.0,76,0.02,,,0.03,WUHU216HW,2013-01-26 17:51:00,
2013-01-26 12:56:00,30.1,23.4,29.93,NNW,338,0.0,2.0,76,0.02,,,0.03,WUHU216HW,2013-01-26 17:56:00,
2013-01-26 13:01:00,30.2,23.6,29.93,West,270,0.0,1.0,76,0.02,,,0.03,WUHU216HW,2013-01-26 18:01:00,
2013-01-26 13:06:00,30.4,23.8,29.93,SSW,203,0.0,1.0,76,0.03,,,0.04,WUHU216HW,2013-01-26 18:06:00,
2013-01-26 13:11:00,30.4,23.8,29.93,SE,135,0.0,1.0,76,0.02,,,0.04,WUHU216HW,2013-01-26 18:11:00,
2013-01-26 13:16:00,30.2,23.6,29.93,West,270,0.0,0.0,76,0.02,,,0.04,WUHU216HW,2013-01-26 18:16:00,
2013-01-26 13:21:00,30.2,23.6,29.93,NW,315,0.0,0.0,76,0.03,,,0.05,WUHU216HW,2013-01-26 18:21:00,
2013-01-26 13:26:00,30.1,23.4,29.93,NW,315,0.0,0.0,76,0.03,,,0.05,WUHU216HW,2013-01-26 18:26:00,
2013-01-26 13:31:00,30.1,23.4,29.93,West,270,0.0,0.0,76,0.03,,,0.05,WUHU216HW,2013-01-26 18:31:00,
2013-01-26 13:36:00,30.1,23.4,29.93,West,270,0.0,0.0,76,0.03,,,0.05,WUHU216HW,2013-01-26 18:36:00,
2013-01-26 13:41:00,30.1,23.4,29.93,North,0,0.0,0.0,76,0.03,,,0.05,WUHU216HW,2013-01-26 18:41:00,
2013-01-26 13:46:00,30.1,23.4,29.94,East,90,0.0,0.0,76,0.02,,,0.05,WUHU216HW,2013-01-26 18:46:00,
2013-01-26 13:51:00,30.1,23.4,29.93,SE,135,0.0,0.0,76,0.02,,,0.05,WUHU216HW,2013-01-26 18:51:00,
2013-01-26 13:56:00,30.2,23.6,29.94,SE,135,0.0,0.0,76,0.02,,,0.05,WUHU216HW,2013-01-26 18:56:00,
2013-01-26 14:01:00,30.2,23.6,29.94,SW,225,0.0,0.0,76,0.01,,,0.05,WUHU216HW,2013-01-26 19:01:00,
2013-01-26 14:06:00,30.4,23.8,29.94,NW,315,0.0,0.0,76,0.01,,,0.05,WUHU216HW,2013-01-26 19:06:00,
2013-01-26 14:11:00,30.6,24.0,29.94,NW,315,0.0,0.0,76,0.01,,,0.05,WUHU216HW,2013-01-26 19:11:00,
2013-01-26 14:16:00,30.6,24.0,29.94,NNW,338,0.0,0.0,76,0.01,,,0.06,WUHU216HW,2013-01-26 19:16:00,
2013-01-26 14:21:00,30.6,24.0,29.94,WNW,293,0.0,0.0,76,0.01,,,0.06,WUHU216HW,2013-01-26 19:21:00,
2013-01-26 14:26:00,30.6,24.0,29.94,NW,315,0.0,1.0,76,0.01,,,0.06,WUHU216HW,2013-01-26 19:26:00,
2013-01-26 14:31:00,30.8,24.4,29.94,ENE,68,0.0,1.0,77,0.01,,,0.06,WUHU216HW,2013-01-26 19:31:00,
2013-01-26 14:36:00,30.8,24.1,29.95,West,270,0.0,1.0,76,0.01,,,0.06,WUHU216HW,2013-01-26 19:36:00,
2013-01-26 14:41:00,30.8,24.1,29.94,NNE,23,0.0,1.0,76,0.01,,,0.06,WUHU216HW,2013-01-26 19:41:00,
2013-01-26 14:46:00,30.8,24.1,29.95,ENE,68,1.0,1.0,76,0.01,,,0.06,WUHU216HW,2013-01-26 19:46:00,
2013-01-26 14:51:00,30.6,24.0,29.95,ENE,68,0.0,1.0,76,0.01,,,0.06,WUHU216HW,2013-01-26 19:51:00,
2013-01-26 14:56:00,30.8,24.1,29.95,North,0,0.0,1.0,76,0.01,,,0.06,WUHU216HW,2013-01-26 19:56:00,
2013-01-26 15:01:00,30.6,24.2,29.95,NNW,338,0.0,1.0,77,0.01,,,0.06,WUHU216HW,2013-01-26 20:01:00,
2013-01-26 15:06:00,30.8,24.4,29.95,East,90,0.0,1.0,77,0.01,,,0.06,WUHU216HW,2013-01-26 20:06:00,
2013-01-26 15:11:00,30.8,24.4,29.95,NNW,338,0.0,1.0,77,0.01,,,0.06,WUHU216HW,2013-01-26 20:11:00,
2013-01-26 15:16:00,30.8,24.4,29.95,NNW,338,0.0,2.0,77,0.01,,,0.07,WUHU216HW,2013-01-26 20:16:00,
2013-01-26 15:21:00,30.8,24.4,29.95,ENE,68,0.0,2.0,77,0.01,,,0.07,WUHU216HW,2013-01-26 20:21:00,
2013-01-26 15:26:00,30.8,24.4,29.96,ESE,113,0.0,1.0,77,0.01,,,0.07,WUHU216HW,2013-01-26 20:26:00,
2013-01-26 15:31:00,30.8,24.4,29.96,SSE,158,1.0,1.0,77,0.01,,,0.07,WUHU216HW,2013-01-26 20:31:00,
2013-01-26 15:36:00,31.0,24.3,29.96,North,0,0.0,1.0,76,0.01,,,0.07,WUHU216HW,2013-01-26 20:36:00,
2013-01-26 15:41:00,31.0,24.6,29.97,ESE,113,0.0,1.0,77,0.01,,,0.07,WUHU216HW,2013-01-26 20:41:00,
2013-01-26 15:46:00,31.0,24.6,29.97,SE,135,0.0,1.0,77,0.01,,,0.07,WUHU216HW,2013-01-26 20:46:00,
2013-01-26 15:51:00,30.8,24.4,29.97,ESE,113,1.0,2.0,77,0.01,,,0.07,WUHU216HW,2013-01-26 20:51:00,
2013-01-26 15:56:00,30.6,24.2,29.97,SSE,158,0.0,2.0,77,0.01,,,0.07,WUHU216HW,2013-01-26 20:56:00,
2013-01-26 16:01:00,30.6,24.2,29.97,East,90,0.0,0.0,77,0.01,,,0.07,WUHU216HW,2013-01-26 21:01:00,
2013-01-26 16:06:00,30.4,24.0,29.98,ENE,68,0.0,1.0,77,0.01,,,0.07,WUHU216HW,2013-01-26 21:06:00,
2013-01-26 16:12:00,30.2,23.9,29.98,NNE,23,0.0,1.0,77,0.01,,,0.07,WUHU216HW,2013-01-26 21:12:00,
2013-01-26 16:17:00,30.1,24.0,29.98,SSW,203,0.0,0.0,78,0.00,,,0.07,WUHU216HW,2013-01-26 21:17:00,
2013-01-26 16:22:00,30.1,24.0,29.98,West,271,1.0,2.0,78,0.00,,,0.07,WUHU216HW,2013-01-26 21:22:00,
2013-01-26 16:27:00,30.2,24.2,29.98,WNW,298,2.0,3.0,78,0.00,,,0.07,WUHU216HW,2013-01-26 21:27:00,
2013-01-26 16:32:00,30.4,24.0,29.98,NW,315,0.0,3.0,77,0.00,,,0.07,WUHU216HW,2013-01-26 21:32:00,
2013-01-26 16:37:00,30.6,24.2,29.98,NNW,338,0.0,2.0,77,0.00,,,0.07,WUHU216HW,2013-01-26 21:37:00,
2013-01-26 16:42:00,30.6,24.0,29.98,NNW,338,0.0,2.0,76,0.00,,,0.07,WUHU216HW,2013-01-26 21:42:00,
2013-01-26 16:47:00,30.6,24.0,29.99,NW,315,0.0,1.0,76,0.00,,,0.07,WUHU216HW,2013-01-26 21:47:00,
2013-01-26 16:52:00,30.6,24.0,29.99,NNE,23,1.0,1.0,76,0.00,,,0.07,WUHU216HW,2013-01-26 21:52:00,
2013-01-26 16:57:00,30.4,23.8,29.99,NE,45,1.0,2.0,76,0.00,,,0.07,WUHU216HW,2013-01-26 21:57:00,
2013-01-26 17:02:00,29.9,23.9,30.00,NE,45,2.0,2.0,78,0.00,,,0.07,WUHU216HW,2013-01-26 22:02:00,
2013-01-26 17:07:00,29.9,23.5,30.00,ESE,113,0.0,2.0,77,0.00,,,0.07,WUHU216HW,2013-01-26 22:07:00,
2013-01-26 17:12:00,29.5,23.5,30.00,ENE,68,0.0,3.0,78,0.00,,,0.07,WUHU216HW,2013-01-26 22:12:00,
2013-01-26 17:17:00,29.3,23.7,30.00,NE,53,1.0,3.0,79,0.00,,,0.07,WUHU216HW,2013-01-26 22:17:00,
2013-01-26 17:22:00,29.2,23.5,30.00,ENE,58,1.0,3.0,79,0.00,,,0.07,WUHU216HW,2013-01-26 22:22:00,
2013-01-26 17:27:00,29.2,23.5,30.00,ESE,113,0.0,3.0,79,0.00,,,0.07,WUHU216HW,2013-01-26 22:27:00,
2013-01-26 17:32:00,29.2,23.5,30.01,ENE,68,0.0,1.0,79,0.00,,,0.07,WUHU216HW,2013-01-26 22:32:00,
2013-01-26 17:37:00,29.2,23.5,30.01,NE,45,0.0,0.0,79,0.00,,,0.07,WUHU216HW,2013-01-26 22:37:00,
2013-01-26 17:42:00,29.2,23.5,30.01,NE,45,0.0,0.0,79,0.00,,,0.07,WUHU216HW,2013-01-26 22:42:00,
2013-01-26 17:47:00,29.2,23.5,30.02,NE,45,0.0,0.0,79,0.00,,,0.07,WUHU216HW,2013-01-26 22:47:00,
2013-01-26 17:52:00,29.2,23.5,30.02,SE,135,0.0,0.0,79,0.00,,,0.07,WUHU216HW,2013-01-26 22:52:00,
2013-01-26 17:57:00,29.2,23.5,30.02,East,90,0.0,0.0,79,0.00,,,0.07,WUHU216HW,2013-01-26 22:57:00,
2013-01-26 18:02:00,29.2,23.5,30.03,North,0,0.0,0.0,79,0.00,,,0.07,WUHU216HW,2013-01-26 23:02:00,
2013-01-26 18:07:00,29.2,23.5,30.03,North,0,0.0,0.0,79,0.00,,,0.07,WUHU216HW,2013-01-26 23:07:00,
2013-01-26 18:12:00,29.2,23.5,30.03,North,0,0.0,0.0,79,0.00,,,0.07,WUHU216HW,2013-01-26 23:12:00,
2013-01-26 18:17:00,29.2,23.5,30.03,North,0,0.0,0.0,79,0.00,,,0.07,WUHU216HW,2013-01-26 23:17:00,
2013-01-26 18:22:00,29.2,23.5,30.03,North,0,0.0,0.0,79,0.00,,,0.07,WUHU216HW,2013-01-26 23:22:00,
2013-01-26 18:27:00,29.0,23.3,30.03,NW,315,0.0,1.0,79,0.00,,,0.07,WUHU216HW,2013-01-26 23:27:00,
2013-01-26 18:32:00,29.0,23.3,30.03,West,270,1.0,1.0,79,0.00,,,0.07,WUHU216HW,2013-01-26 23:32:00,
2013-01-26 18:37:00,29.2,23.5,30.04,NNW,338,0.0,2.0,79,0.00,,,0.07,WUHU216HW,2013-01-26 23:37:00,
2013-01-26 18:42:00,29.2,23.1,30.04,NW,315,0.0,3.0,78,0.00,,,0.07,WUHU216HW,2013-01-26 23:42:00,
2013-01-26 18:47:00,29.5,23.1,30.04,NNW,338,1.0,3.0,77,0.00,,,0.07,WUHU216HW,2013-01-26 23:47:00,
2013-01-26 18:52:00,29.7,23.1,30.04,WNW,303,2.0,4.0,76,0.00,,,0.07,WUHU216HW,2013-01-26 23:52:00,
2013-01-26 18:57:00,29.9,22.9,30.04,WNW,302,1.0,4.0,75,0.00,,,0.07,WUHU216HW,2013-01-26 23:57:00,
2013-01-26 19:02:00,29.9,23.2,30.04,SSW,203,0.0,3.0,76,0.00,,,0.07,WUHU216HW,2013-01-27 00:02:00,
2013-01-26 19:07:00,29.9,23.2,30.05,West,270,1.0,4.0,76,0.00,,,0.07,WUHU216HW,2013-01-27 00:07:00,
2013-01-26 19:12:00,29.9,22.9,30.05,WNW,298,1.0,4.0,75,0.00,,,0.07,WUHU216HW,2013-01-27 00:12:00,
2013-01-26 19:17:00,29.7,22.4,30.05,NW,315,0.0,3.0,74,0.00,,,0.07,WUHU216HW,2013-01-27 00:17:00,
2013-01-26 19:22:00,29.9,22.6,30.05,North,0,0.0,2.0,74,0.00,,,0.07,WUHU216HW,2013-01-27 00:22:00,
2013-01-26 19:27:00,29.9,22.2,30.05,ENE,68,1.0,2.0,73,0.00,,,0.07,WUHU216HW,2013-01-27 00:27:00,
2013-01-26 19:32:00,29.9,22.2,30.05,NE,47,1.0,3.0,73,0.00,,,0.07,WUHU216HW,2013-01-27 00:32:00,
2013-01-26 19:37:00,29.9,22.2,30.06,NE,45,0.0,3.0,73,0.00,,,0.07,WUHU216HW,2013-01-27 00:37:00,
2013-01-26 19:42:00,29.7,22.1,30.06,East,88,1.0,1.0,73,0.00,,,0.07,WUHU216HW,2013-01-27 00:42:00,
2013-01-26 19:47:00,29.7,22.4,30.07,ENE,61,1.0,2.0,74,0.00,,,0.07,WUHU216HW,2013-01-27 00:47:00,
2013-01-26 19:52:00,29.5,22.5,30.07,NE,45,0.0,2.0,75,0.00,,,0.07,WUHU216HW,2013-01-27 00:52:00,
2013-01-26 19:57:00,29.3,22.7,30.07,WNW,293,1.0,1.0,76,0.00,,,0.07,WUHU216HW,2013-01-27 00:57:00,
2013-01-26 20:02:00,29.3,22.7,30.07,WNW,293,0.0,1.0,76,0.00,,,0.07,WUHU216HW,2013-01-27 01:02:00,
2013-01-26 20:07:00,29.3,22.7,30.07,WNW,293,0.0,1.0,76,0.00,,,0.07,WUHU216HW,2013-01-27 01:07:00,
2013-01-26 20:12:00,29.3,22.7,30.07,NW,315,0.0,0.0,76,0.00,,,0.07,WUHU216HW,2013-01-27 01:12:00,
2013-01-26 20:17:00,29.3,22.4,30.07,NW,315,0.0,0.0,75,0.00,,,0.07,WUHU216HW,2013-01-27 01:17:00,
2013-01-26 20:22:00,29.2,22.2,30.07,NW,315,0.0,0.0,75,0.00,,,0.07,WUHU216HW,2013-01-27 01:22:00,
2013-01-26 20:27:00,29.2,22.2,30.08,NNW,338,1.0,1.0,75,0.00,,,0.07,WUHU216HW,2013-01-27 01:27:00,
2013-01-26 20:32:00,29.2,22.5,30.08,NNW,338,0.0,1.0,76,0.00,,,0.07,WUHU216HW,2013-01-27 01:32:00,
2013-01-26 20:37:00,29.2,22.5,30.08,NNW,338,0.0,1.0,76,0.00,,,0.07,WUHU216HW,2013-01-27 01:37:00,
2013-01-26 20:42:00,29.2,22.5,30.08,NNW,338,0.0,0.0,76,0.00,,,0.07,WUHU216HW,2013-01-27 01:42:00,
2013-01-26 20:47:00,29.2,22.2,30.08,NNW,338,0.0,0.0,75,0.00,,,0.07,WUHU216HW,2013-01-27 01:47:00,
2013-01-26 20:52:00,29.2,22.2,30.08,NNW,338,0.0,0.0,75,0.00,,,0.07,WUHU216HW,2013-01-27 01:52:00,
2013-01-26 20:57:00,29.2,22.2,30.09,North,0,0.0,0.0,75,0.00,,,0.07,WUHU216HW,2013-01-27 01:57:00,
2013-01-26 21:02:00,29.2,22.2,30.09,West,270,0.0,1.0,75,0.00,,,0.07,WUHU216HW,2013-01-27 02:02:00,
2013-01-26 21:07:00,29.2,22.2,30.09,South,180,3.0,3.0,75,0.00,,,0.07,WUHU216HW,2013-01-27 02:07:00,
2013-01-26 21:12:00,29.2,21.9,30.10,NW,315,0.0,3.0,74,0.00,,,0.07,WUHU216HW,2013-01-27 02:12:00,
2013-01-26 21:17:00,29.2,21.9,30.10,SW,225,1.0,2.0,74,0.00,,,0.07,WUHU216HW,2013-01-27 02:17:00,
2013-01-26 21:22:00,29.3,21.8,30.10,WNW,300,1.0,3.0,73,0.00,,,0.07,WUHU216HW,2013-01-27 02:22:00,
2013-01-26 21:27:00,29.3,21.8,30.10,NW,317,1.0,3.0,73,0.00,,,0.07,WUHU216HW,2013-01-27 02:27:00,
2013-01-26 21:32:00,29.3,21.4,30.11,WNW,293,2.0,3.0,72,0.00,,,0.07,WUHU216HW,2013-01-27 02:32:00,
2013-01-26 21:37:00,29.3,21.4,30.11,NNW,338,1.0,3.0,72,0.00,,,0.07,WUHU216HW,2013-01-27 02:37:00,
2013-01-26 21:42:00,29.3,21.1,30.11,NW,315,1.0,3.0,71,0.00,,,0.07,WUHU216HW,2013-01-27 02:42:00,
2013-01-26 21:47:00,29.3,20.4,30.12,West,270,1.0,3.0,69,0.00,,,0.07,WUHU216HW,2013-01-27 02:47:00,
2013-01-26 21:52:00,29.3,20.8,30.12,SW,225,2.0,3.0,70,0.00,,,0.07,WUHU216HW,2013-01-27 02:52:00,
2013-01-26 21:57:00,29.3,20.1,30.13,South,180,1.0,3.0,68,0.00,,,0.07,WUHU216HW,2013-01-27 02:57:00,
2013-01-26 22:02:00,29.3,20.4,30.13,SSE,158,1.0,3.0,69,0.00,,,0.07,WUHU216HW,2013-01-27 03:02:00,
2013-01-26 22:07:00,29.5,20.3,30.12,East,83,1.0,3.0,68,0.00,,,0.07,WUHU216HW,2013-01-27 03:07:00,
2013-01-26 22:12:00,29.5,19.5,30.13,ENE,72,1.0,3.0,66,0.00,,,0.07,WUHU216HW,2013-01-27 03:12:00,
2013-01-26 22:17:00,29.5,19.5,30.13,WSW,248,2.0,3.0,66,0.00,,,0.07,WUHU216HW,2013-01-27 03:17:00,
2013-01-26 22:22:00,29.5,19.5,30.13,WNW,293,0.0,3.0,66,0.00,,,0.07,WUHU216HW,2013-01-27 03:22:00,
2013-01-26 22:27:00,29.3,19.4,30.13,West,264,2.0,3.0,66,0.00,,,0.07,WUHU216HW,2013-01-27 03:27:00,
2013-01-26 22:32:00,29.3,19.4,30.14,WNW,293,2.0,3.0,66,0.00,,,0.07,WUHU216HW,2013-01-27 03:32:00,
2013-01-26 22:37:00,29.3,19.4,30.13,WSW,258,1.0,3.0,66,0.00,,,0.07,WUHU216HW,2013-01-27 03:37:00,
2013-01-26 22:42:00,29.2,19.2,30.13,North,0,0.0,3.0,66,0.00,,,0.07,WUHU216HW,2013-01-27 03:42:00,
2013-01-26 22:47:00,28.8,18.9,30.13,West,271,1.0,2.0,66,0.00,,,0.07,WUHU216HW,2013-01-27 03:47:00,
2013-01-26 22:52:00,28.4,18.5,30.14,NNW,338,0.0,2.0,66,0.00,,,0.07,WUHU216HW,2013-01-27 03:52:00,
2013-01-26 22:57:00,28.3,18.4,30.14,NNW,338,0.0,2.0,66,0.00,,,0.07,WUHU216HW,2013-01-27 03:57:00,
2013-01-26 23:02:00,28.1,18.2,30.15,WSW,248,1.0,1.0,66,0.00,,,0.07,WUHU216HW,2013-01-27 04:02:00,
2013-01-26 23:07:00,28.1,18.2,30.15,NW,315,0.0,1.0,66,0.00,,,0.07,WUHU216HW,2013-01-27 04:07:00,
2013-01-26 23:12:00,28.1,17.8,30.15,NW,314,2.0,3.0,65,0.00,,,0.07,WUHU216HW,2013-01-27 04:12:00,
2013-01-26 23:17:00,28.1,17.8,30.15,NW,308,1.0,3.0,65,0.00,,,0.07,WUHU216HW,2013-01-27 04:17:00,
2013-01-26 23:22:00,28.1,17.8,30.15,WNW,293,1.0,2.0,65,0.00,,,0.07,WUHU216HW,2013-01-27 04:22:00,
2013-01-26 23:27:00,28.1,17.8,30.16,WNW,293,0.0,1.0,65,0.00,,,0.07,WUHU216HW,2013-01-27 04:27:00,
2013-01-26 23:32:00,27.7,17.5,30.16,WNW,293,0.0,1.0,65,0.00,,,0.07,WUHU216HW,2013-01-27 04:32:00,
2013-01-26 23:37:00,27.7,17.5,30.16,NW,315,0.0,1.0,65,0.00,,,0.07,WUHU216HW,2013-01-27 04:37:00,
2013-01-26 23:42:00,27.4,17.1,30.15,NW,315,0.0,0.0,65,0.00,,,0.07,WUHU216HW,2013-01-27 04:42:00,
2013-01-26 23:47:00,27.0,17.1,30.16,NW,315,0.0,0.0,66,0.00,,,0.07,WUHU216HW,2013-01-27 04:47:00,
2013-01-26 23:52:00,27.0,17.1,30.16,South,180,0.0,0.0,66,0.00,,,0.07,WUHU216HW,2013-01-27 04:52:00,
2013-01-26 23:57:00,26.6,16.7,30.16,WNW,293,1.0,1.0,66,0.00,,,0.07,WUHU216HW,2013-01-27 04:57:00,